createdAt,value
2023-12-16T00:01:14.889Z,3.90
2023-12-16T00:03:42.970Z,4.00
2023-12-16T00:06:11.022Z,4.15
2023-12-16T00:08:38.962Z,4.68
2023-12-16T00:11:06.502Z,3.70
2023-12-16T00:13:36.262Z,3.70
2023-12-16T00:16:03.943Z,4.32
2023-12-16T00:18:31.687Z,4.57
2023-12-16T00:20:59.353Z,4.10
2023-12-16T00:23:26.989Z,4.25
2023-12-16T00:25:54.803Z,4.03
2023-12-16T00:28:22.305Z,4.28
2023-12-16T00:30:50.082Z,4.50
2023-12-16T00:33:18.182Z,4.68
2023-12-16T00:35:46.808Z,4.15
2023-12-16T00:38:14.798Z,3.92
2023-12-16T00:40:43.585Z,5.00
2023-12-16T00:43:11.830Z,4.78
2023-12-16T00:45:39.860Z,4.85
2023-12-16T00:48:07.491Z,4.55
2023-12-16T00:50:40.040Z,4.18
2023-12-16T00:53:07.979Z,4.95
2023-12-16T00:55:36.019Z,4.90
2023-12-16T00:58:03.628Z,4.93
2023-12-16T01:00:31.512Z,5.20
2023-12-16T01:03:02.185Z,4.45
2023-12-16T01:05:30.326Z,4.57
2023-12-16T01:07:57.722Z,5.65
2023-12-16T01:10:25.715Z,4.70
2023-12-16T01:12:53.941Z,4.55
2023-12-16T01:15:21.629Z,4.95
2023-12-16T01:17:51.348Z,5.00
2023-12-16T01:20:19.384Z,5.47
2023-12-16T01:22:49.147Z,5.10
2023-12-16T01:25:16.665Z,5.40
2023-12-16T01:27:44.278Z,4.60
2023-12-16T01:30:12.054Z,5.28
2023-12-16T01:32:39.710Z,5.57
2023-12-16T01:35:07.462Z,5.47
2023-12-16T01:37:39.854Z,5.05
2023-12-16T01:40:08.605Z,5.75
2023-12-16T01:42:36.275Z,5.82
2023-12-16T01:45:05.281Z,5.78
2023-12-16T01:47:34.492Z,5.90
2023-12-16T01:50:02.880Z,7.57
2023-12-16T01:52:30.834Z,5.95
2023-12-16T01:54:59.699Z,6.57
2023-12-16T01:57:27.862Z,6.40
2023-12-16T01:59:55.489Z,6.03
2023-12-16T02:02:23.076Z,6.28
2023-12-16T02:04:51.058Z,7.20
2023-12-16T02:07:18.463Z,6.78
2023-12-16T02:09:46.078Z,6.50
2023-12-16T02:12:16.737Z,5.70
2023-12-16T02:14:44.608Z,6.80
2023-12-16T02:17:15.890Z,5.82
2023-12-16T02:19:45.691Z,6.95
2023-12-16T02:22:13.269Z,6.50
2023-12-16T02:24:43.586Z,5.57
2023-12-16T02:29:39.856Z,6.25
2023-12-16T02:32:07.856Z,6.18
2023-12-16T02:34:36.266Z,5.50
2023-12-16T02:37:07.468Z,6.93
2023-12-16T02:39:35.505Z,5.95
2023-12-16T02:42:03.491Z,5.75
2023-12-16T02:44:30.961Z,5.78
2023-12-16T02:46:58.560Z,5.03
2023-12-16T02:49:26.231Z,6.13
2023-12-16T02:51:54.431Z,5.13
2023-12-16T02:54:22.504Z,5.65
2023-12-16T02:56:50.278Z,5.97
2023-12-16T02:59:18.172Z,5.55
2023-12-16T03:01:45.813Z,6.38
2023-12-16T03:04:13.655Z,5.25
2023-12-16T03:06:45.609Z,5.43
2023-12-16T03:09:13.648Z,5.82
2023-12-16T03:11:41.236Z,5.70
2023-12-16T03:14:08.844Z,5.28
2023-12-16T03:16:37.137Z,4.55
2023-12-16T03:19:04.867Z,7.20
2023-12-16T03:21:32.532Z,5.00
2023-12-16T03:24:00.519Z,4.65
2023-12-16T03:26:28.068Z,5.90
2023-12-16T03:28:56.305Z,5.47
2023-12-16T03:31:24.133Z,5.93
2023-12-16T03:33:54.825Z,6.32
2023-12-16T03:38:50.339Z,6.30
2023-12-16T03:41:18.060Z,5.25
2023-12-16T03:43:46.041Z,5.35
2023-12-16T03:46:13.917Z,5.20
2023-12-16T03:48:41.939Z,4.70
2023-12-16T03:51:09.413Z,4.72
2023-12-16T03:53:37.146Z,5.63
2023-12-16T03:56:05.580Z,4.85
2023-12-16T03:58:39.165Z,5.30
2023-12-16T04:01:09.655Z,4.75
2023-12-16T04:06:05.752Z,4.18
2023-12-16T04:08:34.387Z,5.50
2023-12-16T04:11:02.080Z,5.53
2023-12-16T04:13:29.958Z,5.05
2023-12-16T04:15:57.521Z,4.90
2023-12-16T04:18:28.947Z,5.85
2023-12-16T04:20:57.201Z,5.32
2023-12-16T04:23:25.021Z,5.07
2023-12-16T04:25:53.061Z,4.75
2023-12-16T04:28:20.682Z,5.00
2023-12-16T04:30:48.524Z,4.45
2023-12-16T04:33:16.301Z,6.22
2023-12-16T04:35:44.176Z,5.50
2023-12-16T04:38:11.902Z,5.82
2023-12-16T04:40:39.733Z,5.07
2023-12-16T04:43:07.291Z,6.18
2023-12-16T04:45:36.809Z,4.93
2023-12-16T04:48:04.608Z,5.13
2023-12-16T04:50:32.809Z,5.25
2023-12-16T04:53:00.808Z,4.78
2023-12-16T04:55:28.827Z,5.20
2023-12-16T04:57:56.944Z,6.07
2023-12-16T05:00:24.674Z,6.22
2023-12-16T05:02:52.114Z,5.22
2023-12-16T05:05:19.769Z,5.22
2023-12-16T05:07:47.387Z,5.88
2023-12-16T05:10:15.336Z,5.50
2023-12-16T05:12:44.345Z,5.32
2023-12-16T05:15:12.044Z,5.70
2023-12-16T05:17:39.839Z,5.53
2023-12-16T05:20:07.956Z,5.32
2023-12-16T05:22:35.927Z,5.95
2023-12-16T05:25:04.256Z,5.50
2023-12-16T05:27:32.622Z,6.13
2023-12-16T05:30:00.928Z,6.20
2023-12-16T05:32:28.860Z,6.80
2023-12-16T05:34:56.901Z,5.60
2023-12-16T05:37:24.958Z,6.32
2023-12-16T05:39:54.498Z,5.38
2023-12-16T05:42:23.199Z,5.55
2023-12-16T05:44:51.401Z,5.15
2023-12-16T05:47:19.139Z,6.38
2023-12-16T05:49:52.322Z,5.72
2023-12-16T05:52:19.882Z,6.68
2023-12-16T05:54:47.927Z,6.43
2023-12-16T05:57:15.556Z,6.28
2023-12-16T05:59:43.279Z,5.40
2023-12-16T06:02:11.132Z,6.63
2023-12-16T06:04:39.764Z,6.07
2023-12-16T06:07:07.764Z,6.47
2023-12-16T06:09:35.689Z,5.38
2023-12-16T06:12:03.650Z,5.70
2023-12-16T06:14:32.032Z,6.45
2023-12-16T06:17:00.840Z,5.93
2023-12-16T06:19:28.703Z,7.03
2023-12-16T06:21:56.820Z,6.18
2023-12-16T06:24:25.944Z,4.90
2023-12-16T06:26:53.903Z,5.35
2023-12-16T06:29:21.417Z,6.63
2023-12-16T06:31:49.401Z,5.93
2023-12-16T06:34:19.898Z,5.95
2023-12-16T06:36:47.805Z,5.93
2023-12-16T06:39:15.731Z,5.97
2023-12-16T06:41:43.990Z,5.88
2023-12-16T06:44:11.824Z,5.63
2023-12-16T06:46:41.433Z,5.63
2023-12-16T06:49:09.483Z,5.22
2023-12-16T06:51:38.163Z,5.70
2023-12-16T06:54:08.871Z,5.07
2023-12-16T06:56:36.545Z,6.57
2023-12-16T06:59:04.124Z,6.30
2023-12-16T07:01:32.254Z,5.20
2023-12-16T07:04:00.524Z,5.55
2023-12-16T07:06:28.373Z,4.93
2023-12-16T07:08:56.237Z,5.18
2023-12-16T07:11:24.019Z,5.30
2023-12-16T07:13:51.881Z,5.93
2023-12-16T07:16:20.105Z,4.65
2023-12-16T07:18:47.720Z,5.68
2023-12-16T07:21:15.674Z,5.07
2023-12-16T07:23:43.205Z,5.47
2023-12-16T07:26:11.197Z,5.25
2023-12-16T07:28:38.753Z,4.95
2023-12-16T07:31:06.985Z,6.22
2023-12-16T07:33:38.845Z,5.70
2023-12-16T07:36:10.251Z,5.10
2023-12-16T07:38:42.726Z,5.22
2023-12-16T07:41:10.468Z,5.72
2023-12-16T07:43:40.572Z,5.35
2023-12-16T07:46:08.377Z,4.95
2023-12-16T07:48:36.158Z,4.78
2023-12-16T07:51:04.178Z,4.63
2023-12-16T07:53:31.778Z,5.30
2023-12-16T07:55:59.990Z,5.20
2023-12-16T07:58:28.011Z,5.18
2023-12-16T08:00:57.165Z,4.82
2023-12-16T08:03:28.356Z,5.38
2023-12-16T08:05:56.028Z,5.28
2023-12-16T08:08:24.133Z,5.28
2023-12-16T08:10:54.563Z,4.88
2023-12-16T08:15:51.644Z,5.25
2023-12-16T08:18:21.630Z,5.90
2023-12-16T08:23:18.150Z,5.72
2023-12-16T08:25:46.075Z,5.43
2023-12-16T08:28:18.264Z,5.43
2023-12-16T08:30:49.874Z,5.22
2023-12-16T08:33:17.762Z,5.32
2023-12-16T08:35:45.533Z,5.90
2023-12-16T08:38:13.505Z,5.15
2023-12-16T08:40:41.450Z,5.95
2023-12-16T08:43:09.631Z,5.00
2023-12-16T08:45:37.214Z,5.20
2023-12-16T08:48:05.299Z,5.00
2023-12-16T08:50:32.973Z,5.18
2023-12-16T08:53:00.814Z,5.30
2023-12-16T08:55:29.354Z,6.45
2023-12-16T08:57:58.161Z,5.60
2023-12-16T09:00:26.313Z,4.90
2023-12-16T09:02:54.040Z,5.55
2023-12-16T09:05:21.690Z,4.65
2023-12-16T09:07:49.223Z,5.72
2023-12-16T09:10:16.922Z,5.20
2023-12-16T09:12:44.474Z,5.03
2023-12-16T09:15:12.320Z,4.80
2023-12-16T09:17:40.221Z,6.40
2023-12-16T09:20:08.813Z,5.70
2023-12-16T09:22:36.541Z,6.22
2023-12-16T09:25:05.688Z,4.85
2023-12-16T09:27:33.214Z,5.13
2023-12-16T09:30:00.793Z,5.07
2023-12-16T09:32:28.687Z,6.82
2023-12-16T09:34:56.478Z,5.43
2023-12-16T09:37:24.194Z,5.70
2023-12-16T09:39:51.685Z,5.43
2023-12-16T09:42:20.975Z,6.30
2023-12-16T09:44:50.604Z,6.05
2023-12-16T09:47:18.083Z,5.70
2023-12-16T09:49:46.217Z,6.03
2023-12-16T09:52:14.066Z,5.78
2023-12-16T09:54:41.792Z,6.45
2023-12-16T09:57:09.583Z,6.75
2023-12-16T09:59:39.098Z,7.20
2023-12-16T10:02:10.784Z,6.63
2023-12-16T10:04:40.015Z,7.10
2023-12-16T10:07:10.085Z,8.13
2023-12-16T10:09:37.673Z,7.68
2023-12-16T10:12:10.025Z,8.20
2023-12-16T10:14:57.866Z,7.93
2023-12-16T10:17:26.546Z,9.43
2023-12-16T10:19:54.425Z,7.65
2023-12-16T10:22:22.315Z,8.93
2023-12-16T10:24:49.942Z,9.23
2023-12-16T10:27:17.525Z,9.15
2023-12-16T10:29:54.381Z,9.50
2023-12-16T10:32:30.913Z,9.80
2023-12-16T10:34:58.976Z,9.95
2023-12-16T10:37:26.784Z,10.63
2023-12-16T10:39:54.519Z,11.90
2023-12-16T10:42:22.267Z,10.70
2023-12-16T10:44:50.885Z,11.05
2023-12-16T10:47:19.418Z,11.07
2023-12-16T10:49:48.119Z,11.32
2023-12-16T10:52:20.119Z,11.90
2023-12-16T10:54:52.428Z,11.57
2023-12-16T10:57:21.671Z,11.13
2023-12-16T11:00:09.718Z,11.27
2023-12-16T11:02:58.063Z,12.75
2023-12-16T11:05:36.366Z,12.07
2023-12-16T11:08:04.832Z,11.63
2023-12-16T11:10:33.214Z,12.07
2023-12-16T11:13:04.933Z,12.80
2023-12-16T11:15:36.546Z,11.20
2023-12-16T11:18:10.893Z,11.57
2023-12-16T11:20:46.993Z,11.95
2023-12-16T11:23:18.990Z,13.52
2023-12-16T11:25:51.019Z,11.85
2023-12-16T11:28:20.248Z,12.95
2023-12-16T11:30:47.935Z,13.68
2023-12-16T11:33:15.689Z,12.98
2023-12-16T11:35:47.279Z,12.68
2023-12-16T11:38:33.386Z,12.70
2023-12-16T11:41:00.882Z,13.35
2023-12-16T11:43:47.007Z,14.10
2023-12-16T11:46:34.103Z,13.02
2023-12-16T11:49:05.338Z,14.70
2023-12-16T11:51:40.374Z,16.05
2023-12-16T11:54:09.275Z,13.85
2023-12-16T11:56:37.473Z,13.63
2023-12-16T11:59:05.682Z,13.90
2023-12-16T12:01:34.847Z,13.85
2023-12-16T12:04:04.537Z,14.43
2023-12-16T12:06:33.507Z,15.18
2023-12-16T12:09:01.624Z,15.77
2023-12-16T12:11:29.375Z,15.80
2023-12-16T12:13:57.814Z,15.60
2023-12-16T12:16:29.523Z,16.20
2023-12-16T12:18:58.484Z,16.30
2023-12-16T12:21:26.465Z,16.63
2023-12-16T12:23:54.215Z,17.50
2023-12-16T12:26:25.651Z,15.60
2023-12-16T12:28:57.976Z,16.15
2023-12-16T12:31:25.593Z,15.98
2023-12-16T12:33:54.074Z,16.38
2023-12-16T12:36:22.000Z,15.43
2023-12-16T12:38:56.330Z,17.73
2023-12-16T12:41:26.513Z,16.38
2023-12-16T12:43:54.163Z,16.33
2023-12-16T12:46:23.400Z,16.85
2023-12-16T12:48:57.972Z,16.77
2023-12-16T12:51:28.128Z,16.55
2023-12-16T12:54:01.833Z,17.90
2023-12-16T12:56:30.624Z,17.65
2023-12-16T12:58:58.460Z,18.00
2023-12-16T13:01:26.316Z,18.40
2023-12-16T13:03:55.564Z,19.40
2023-12-16T13:06:23.392Z,18.27
2023-12-16T13:08:51.995Z,19.77
2023-12-16T13:11:19.666Z,19.67
2023-12-16T13:13:48.769Z,20.30
2023-12-16T13:16:16.745Z,19.75
2023-12-16T13:18:44.882Z,20.70
2023-12-16T13:21:12.737Z,20.05
2023-12-16T13:23:40.387Z,19.70
2023-12-16T13:26:12.429Z,20.55
2023-12-16T13:28:43.643Z,19.52
2023-12-16T13:31:11.294Z,20.52
2023-12-16T13:33:39.144Z,20.42
2023-12-16T13:36:32.621Z,22.20
2023-12-16T13:38:55.773Z,21.25
2023-12-16T13:41:24.765Z,20.05
2023-12-16T13:43:52.374Z,22.27
2023-12-16T13:46:20.128Z,20.88
2023-12-16T13:48:47.989Z,22.67
2023-12-16T13:51:15.689Z,22.35
2023-12-16T13:53:43.304Z,22.85
2023-12-16T13:56:10.966Z,22.83
2023-12-16T13:58:38.563Z,23.00
2023-12-16T14:01:06.494Z,24.70
2023-12-16T14:03:34.094Z,23.48
2023-12-16T14:06:03.811Z,25.40
2023-12-16T14:08:32.761Z,26.08
2023-12-16T14:11:00.833Z,24.23
2023-12-16T14:13:28.490Z,25.05
2023-12-16T14:15:57.247Z,26.27
2023-12-16T14:18:25.172Z,25.02
2023-12-16T14:20:52.971Z,24.85
2023-12-16T14:23:20.571Z,26.00
2023-12-16T14:25:48.191Z,26.17
2023-12-16T14:28:15.760Z,25.48
2023-12-16T14:30:44.354Z,24.75
2023-12-16T14:33:12.248Z,25.75
2023-12-16T14:35:40.022Z,27.63
2023-12-16T14:38:07.658Z,24.45
2023-12-16T14:40:35.248Z,25.85
2023-12-16T14:43:02.820Z,24.05
2023-12-16T14:45:30.423Z,24.33
2023-12-16T14:47:58.053Z,25.58
2023-12-16T14:50:25.799Z,25.27
2023-12-16T14:52:53.389Z,26.52
2023-12-16T14:55:20.950Z,25.38
2023-12-16T14:57:49.206Z,25.95
2023-12-16T15:00:17.078Z,25.63
2023-12-16T15:02:44.927Z,24.10
2023-12-16T15:05:13.176Z,24.15
2023-12-16T15:07:41.007Z,24.63
2023-12-16T15:10:08.989Z,24.75
2023-12-16T15:12:37.229Z,24.92
2023-12-16T15:15:05.191Z,23.42
2023-12-16T15:17:35.031Z,24.45
2023-12-16T15:20:02.881Z,23.73
2023-12-16T15:22:30.601Z,25.15
2023-12-16T15:24:58.380Z,25.55
2023-12-16T15:27:25.927Z,25.73
2023-12-16T15:29:55.182Z,24.67
2023-12-16T15:32:22.786Z,25.55
2023-12-16T15:34:50.621Z,24.60
2023-12-16T15:37:18.813Z,25.95
2023-12-16T15:39:46.802Z,26.35
2023-12-16T15:42:16.447Z,26.15
2023-12-16T15:44:44.127Z,26.20
2023-12-16T15:47:11.767Z,25.65
2023-12-16T15:49:39.730Z,25.98
2023-12-16T15:52:08.710Z,25.55
2023-12-16T15:54:36.705Z,26.80
2023-12-16T15:57:04.244Z,26.02
2023-12-16T15:59:32.085Z,27.40
2023-12-16T16:02:00.221Z,26.92
2023-12-16T16:04:27.822Z,26.13
2023-12-16T16:06:55.775Z,26.88
2023-12-16T16:09:23.225Z,27.75
2023-12-16T16:11:51.053Z,26.77
2023-12-16T16:14:18.665Z,27.40
2023-12-16T16:16:46.235Z,26.85
2023-12-16T16:19:14.096Z,27.63
2023-12-16T16:21:41.715Z,27.33
2023-12-16T16:24:09.307Z,27.27
2023-12-16T16:26:37.550Z,27.40
2023-12-16T16:29:05.119Z,27.10
2023-12-16T16:31:37.420Z,25.73
2023-12-16T16:34:06.038Z,28.42
2023-12-16T16:36:34.469Z,27.55
2023-12-16T16:39:02.687Z,27.52
2023-12-16T16:41:31.957Z,27.75
2023-12-16T16:43:59.655Z,27.77
2023-12-16T16:46:27.190Z,28.25
2023-12-16T16:48:55.333Z,29.27
2023-12-16T16:51:23.037Z,29.05
2023-12-16T16:53:51.455Z,30.65
2023-12-16T16:56:19.525Z,31.35
2023-12-16T16:58:47.254Z,30.77
2023-12-16T17:01:14.845Z,31.35
2023-12-16T17:03:42.582Z,31.65
2023-12-16T17:06:10.460Z,31.58
2023-12-16T17:08:38.066Z,30.67
2023-12-16T17:11:05.812Z,32.20
2023-12-16T17:13:33.661Z,32.60
2023-12-16T17:16:01.117Z,32.92
2023-12-16T17:18:29.031Z,32.00
2023-12-16T17:20:56.957Z,31.55
2023-12-16T17:23:24.832Z,31.52
2023-12-16T17:25:52.426Z,34.30
2023-12-16T17:28:19.906Z,32.67
2023-12-16T17:30:47.902Z,31.15
2023-12-16T17:33:15.692Z,32.30
2023-12-16T17:35:43.345Z,33.17
2023-12-16T17:38:11.143Z,33.10
2023-12-16T17:40:38.644Z,33.13
2023-12-16T17:43:06.247Z,35.45
2023-12-16T17:45:33.809Z,34.65
2023-12-16T17:48:01.798Z,33.05
2023-12-16T17:50:29.591Z,33.53
2023-12-16T17:52:57.587Z,34.35
2023-12-16T17:55:25.182Z,34.35
2023-12-16T17:57:52.728Z,34.58
2023-12-16T18:00:20.553Z,36.92
2023-12-16T18:02:50.514Z,35.15
2023-12-16T18:05:19.611Z,35.72
2023-12-16T18:07:47.343Z,35.53
2023-12-16T18:10:14.915Z,35.42
2023-12-16T18:12:42.433Z,35.92
2023-12-16T18:15:10.904Z,37.13
2023-12-16T18:17:39.012Z,35.95
2023-12-16T18:20:07.123Z,36.85
2023-12-16T18:22:34.732Z,36.13
2023-12-16T18:25:02.260Z,36.92
2023-12-16T18:27:29.785Z,38.05
2023-12-16T18:29:57.459Z,35.83
2023-12-16T18:32:25.011Z,35.63
2023-12-16T18:34:52.669Z,37.80
2023-12-16T18:37:20.258Z,35.33
2023-12-16T18:39:47.714Z,36.50
2023-12-16T18:42:15.322Z,37.00
2023-12-16T18:44:43.000Z,36.15
2023-12-16T18:47:10.621Z,35.65
2023-12-16T18:49:42.244Z,35.15
2023-12-16T18:52:09.929Z,35.72
2023-12-16T18:54:37.619Z,35.50
2023-12-16T18:57:05.363Z,36.45
2023-12-16T18:59:33.047Z,35.65
2023-12-16T19:02:00.613Z,36.08
2023-12-16T19:04:28.205Z,35.80
2023-12-16T19:06:55.957Z,35.70
2023-12-16T19:09:24.037Z,35.35
2023-12-16T19:11:55.020Z,35.60
2023-12-16T19:14:22.885Z,34.78
2023-12-16T19:16:50.587Z,34.30
2023-12-16T19:19:18.166Z,34.60
2023-12-16T19:21:45.860Z,35.63
2023-12-16T19:24:14.949Z,34.90
2023-12-16T19:26:42.727Z,34.50
2023-12-16T19:29:10.229Z,35.13
2023-12-16T19:31:37.801Z,36.47
2023-12-16T19:34:05.615Z,36.55
2023-12-16T19:36:33.403Z,34.88
2023-12-16T19:39:00.984Z,35.22
2023-12-16T19:41:28.526Z,36.03
2023-12-16T19:43:56.127Z,35.45
2023-12-16T19:46:24.033Z,35.80
2023-12-16T19:48:51.874Z,35.85
2023-12-16T19:51:19.859Z,35.80
2023-12-16T19:53:47.609Z,35.50
2023-12-16T19:56:15.208Z,35.75
2023-12-16T19:58:43.847Z,36.38
2023-12-16T20:01:11.995Z,36.40
2023-12-16T20:03:39.656Z,37.33
2023-12-16T20:06:07.852Z,38.20
2023-12-16T20:08:35.653Z,36.65
2023-12-16T20:11:03.798Z,35.88
2023-12-16T20:13:32.507Z,37.85
2023-12-16T20:16:00.084Z,37.60
2023-12-16T20:18:28.115Z,37.42
2023-12-16T20:20:55.663Z,37.45
2023-12-16T20:23:23.387Z,36.42
2023-12-16T20:25:50.982Z,38.25
2023-12-16T20:28:18.614Z,37.58
2023-12-16T20:30:46.726Z,36.70
2023-12-16T20:33:14.573Z,39.53
2023-12-16T20:35:42.389Z,37.20
2023-12-16T20:38:29.950Z,37.83
2023-12-16T20:40:57.607Z,36.78
2023-12-16T20:43:25.139Z,37.97
2023-12-16T20:45:52.946Z,35.40
2023-12-16T20:48:20.662Z,36.60
2023-12-16T20:50:48.886Z,36.03
2023-12-16T20:53:16.869Z,36.70
2023-12-16T20:55:44.611Z,36.33
2023-12-16T20:58:12.240Z,36.45
2023-12-16T21:00:39.838Z,37.00
2023-12-16T21:03:08.907Z,35.70
2023-12-16T21:05:36.940Z,35.72
2023-12-16T21:08:04.881Z,36.20
2023-12-16T21:10:32.550Z,35.47
2023-12-16T21:13:00.558Z,35.47
2023-12-16T21:15:28.145Z,35.83
2023-12-16T21:17:56.043Z,35.63
2023-12-16T21:20:23.736Z,36.28
2023-12-16T21:22:51.294Z,35.85
2023-12-16T21:25:18.940Z,38.25
2023-12-16T21:27:46.515Z,37.00
2023-12-16T21:30:14.214Z,36.60
2023-12-16T21:32:42.312Z,37.15
2023-12-16T21:35:10.269Z,36.22
2023-12-16T21:37:38.604Z,37.15
2023-12-16T21:40:09.780Z,36.35
2023-12-16T21:42:37.594Z,37.22
2023-12-16T21:45:05.329Z,35.30
2023-12-16T21:47:32.962Z,37.55
2023-12-16T21:50:02.225Z,35.50
2023-12-16T21:52:29.777Z,35.85
2023-12-16T21:54:57.516Z,35.17
2023-12-16T21:57:25.856Z,36.70
2023-12-16T21:59:53.730Z,36.05
2023-12-16T22:02:21.728Z,35.83
2023-12-16T22:04:49.565Z,35.95
2023-12-16T22:07:17.194Z,36.60
2023-12-16T22:09:44.859Z,36.95
2023-12-16T22:12:12.517Z,37.78
2023-12-16T22:14:40.115Z,37.42
2023-12-16T22:17:07.801Z,38.72
2023-12-16T22:19:35.462Z,37.03
2023-12-16T22:22:02.994Z,38.88
2023-12-16T22:24:30.647Z,35.78
2023-12-16T22:26:59.207Z,37.42
2023-12-16T22:29:26.710Z,37.10
2023-12-16T22:31:54.659Z,36.60
2023-12-16T22:34:22.282Z,39.28
2023-12-16T22:36:49.784Z,39.25
2023-12-16T22:39:18.430Z,36.55
2023-12-16T22:41:45.986Z,37.67
2023-12-16T22:44:13.628Z,37.75
2023-12-16T22:46:41.277Z,37.80
2023-12-16T22:49:09.449Z,38.10
2023-12-16T22:51:37.276Z,37.53
2023-12-16T22:54:04.880Z,37.63
2023-12-16T22:56:32.433Z,37.72
2023-12-16T22:58:59.974Z,40.30
2023-12-16T23:01:27.549Z,39.50
2023-12-16T23:03:55.174Z,40.72
2023-12-16T23:06:22.748Z,40.40
2023-12-16T23:08:50.364Z,39.00
2023-12-16T23:11:18.080Z,39.10
2023-12-16T23:13:45.804Z,37.88
2023-12-16T23:16:13.474Z,37.85
2023-12-16T23:18:41.426Z,38.28
2023-12-16T23:21:09.000Z,36.40
2023-12-16T23:23:36.501Z,36.65
2023-12-16T23:26:06.439Z,34.72
2023-12-16T23:28:34.072Z,37.22
2023-12-16T23:31:10.952Z,36.38
2023-12-16T23:33:42.740Z,35.92
2023-12-16T23:36:10.726Z,36.53
2023-12-16T23:38:38.347Z,37.38
2023-12-16T23:41:05.959Z,36.47
2023-12-16T23:43:33.564Z,36.70
2023-12-16T23:46:01.069Z,36.08
2023-12-16T23:48:29.012Z,35.28
2023-12-16T23:50:56.659Z,35.28
2023-12-16T23:53:24.272Z,35.20
2023-12-16T23:55:51.828Z,34.75
2023-12-16T23:58:19.468Z,34.58
